createdAt,value
2023-04-16T00:01:40.334Z,99896.55
2023-04-16T00:04:08.240Z,99902.23
2023-04-16T00:06:36.575Z,99904.11
2023-04-16T00:09:04.467Z,99910.72
2023-04-16T00:11:32.227Z,99912.83
2023-04-16T00:14:00.070Z,99912.82
2023-04-16T00:16:28.146Z,99915.33
2023-04-16T00:18:55.979Z,99922.80
2023-04-16T00:21:23.756Z,99924.11
2023-04-16T00:23:51.558Z,99923.64
2023-04-16T00:26:19.662Z,99927.26
2023-04-16T00:28:48.027Z,99929.89
2023-04-16T00:31:16.119Z,99934.15
2023-04-16T00:33:43.972Z,99931.58
2023-04-16T00:36:11.677Z,99936.44
2023-04-16T00:38:39.522Z,99932.11
2023-04-16T00:41:07.248Z,99931.96
2023-04-16T00:43:35.078Z,99929.69
2023-04-16T00:46:05.834Z,99933.12
2023-04-16T00:48:34.606Z,99934.06
2023-04-16T00:51:04.996Z,99937.16
2023-04-16T00:53:34.192Z,99936.34
2023-04-16T00:56:06.339Z,99933.02
2023-04-16T00:58:34.945Z,99938.11
2023-04-16T01:01:02.755Z,99937.22
2023-04-16T01:03:43.405Z,99936.46
2023-04-16T01:06:11.775Z,99931.10
2023-04-16T01:08:40.173Z,99929.56
2023-04-16T01:11:08.235Z,99934.59
2023-04-16T01:13:39.368Z,99934.48
2023-04-16T01:16:08.932Z,99936.59
2023-04-16T01:18:37.545Z,99932.00
2023-04-16T01:21:05.609Z,99934.33
2023-04-16T01:23:34.254Z,99936.25
2023-04-16T01:26:03.454Z,99942.51
2023-04-16T01:28:31.355Z,99944.98
2023-04-16T01:30:59.130Z,99946.54
2023-04-16T01:33:56.500Z,99944.23
2023-04-16T01:36:24.651Z,99944.05
2023-04-16T01:38:52.402Z,99944.91
2023-04-16T01:41:20.324Z,99944.08
2023-04-16T01:43:48.109Z,99948.17
2023-04-16T01:46:20.578Z,99947.73
2023-04-16T01:48:48.995Z,99947.11
2023-04-16T01:51:16.857Z,99950.77
2023-04-16T01:53:45.839Z,99948.91
2023-04-16T01:56:13.848Z,99950.50
2023-04-16T01:58:47.126Z,99954.73
2023-04-16T02:01:16.176Z,99952.86
2023-04-16T02:03:45.335Z,99948.33
2023-04-16T02:06:13.721Z,99950.15
2023-04-16T02:08:41.927Z,99951.30
2023-04-16T02:11:09.663Z,99955.13
2023-04-16T02:13:37.565Z,99961.94
2023-04-16T02:16:06.239Z,99957.20
2023-04-16T02:18:57.435Z,99958.80
2023-04-16T02:21:26.089Z,99963.98
2023-04-16T02:23:53.853Z,99963.04
2023-04-16T02:26:26.657Z,99961.98
2023-04-16T02:28:55.285Z,99965.89
2023-04-16T02:31:25.640Z,99967.82
2023-04-16T02:33:53.428Z,99969.41
2023-04-16T02:36:21.728Z,99970.04
2023-04-16T02:38:49.512Z,99972.80
2023-04-16T02:41:17.400Z,99973.52
2023-04-16T02:43:45.389Z,99977.20
2023-04-16T02:46:13.262Z,99978.60
2023-04-16T02:48:41.725Z,99981.14
2023-04-16T02:51:09.548Z,99982.52
2023-04-16T02:53:37.485Z,99988.65
2023-04-16T02:56:05.988Z,99989.39
2023-04-16T02:58:33.783Z,99987.07
2023-04-16T03:01:01.965Z,99984.45
2023-04-16T03:03:29.919Z,99985.94
2023-04-16T03:05:57.665Z,99984.06
2023-04-16T03:08:25.925Z,99988.60
2023-04-16T03:10:54.112Z,99989.56
2023-04-16T03:13:21.859Z,99993.11
2023-04-16T03:15:50.101Z,99999.96
2023-04-16T03:18:17.950Z,99998.91
2023-04-16T03:20:45.849Z,100002.67
2023-04-16T03:23:13.669Z,100006.85
2023-04-16T03:25:41.629Z,100001.65
2023-04-16T03:28:09.936Z,100004.80
2023-04-16T03:30:38.982Z,100007.69
2023-04-16T03:33:07.108Z,100010.27
2023-04-16T03:35:36.018Z,100010.64
2023-04-16T03:38:04.160Z,100011.91
2023-04-16T03:40:32.212Z,100011.31
2023-04-16T03:43:00.495Z,100013.96
2023-04-16T03:45:29.660Z,100016.83
2023-04-16T03:47:57.815Z,100020.41
2023-04-16T03:50:26.613Z,100025.99
2023-04-16T03:52:54.537Z,100030.63
2023-04-16T03:55:22.308Z,100036.20
2023-04-16T03:57:50.142Z,100042.44
2023-04-16T04:00:18.505Z,100046.27
2023-04-16T04:02:56.188Z,100046.91
2023-04-16T04:05:24.690Z,100049.84
2023-04-16T04:07:52.812Z,100057.58
2023-04-16T04:10:20.576Z,100056.92
2023-04-16T04:12:48.361Z,100055.88
2023-04-16T04:15:16.359Z,100054.77
2023-04-16T04:17:44.265Z,100057.48
2023-04-16T04:20:12.509Z,100059.42
2023-04-16T04:22:43.454Z,100060.70
2023-04-16T04:25:12.831Z,100062.82
2023-04-16T04:27:40.851Z,100068.26
2023-04-16T04:30:09.855Z,100070.11
2023-04-16T04:32:38.039Z,100075.48
2023-04-16T04:35:06.643Z,100072.11
2023-04-16T04:37:34.933Z,100076.30
2023-04-16T04:40:09.682Z,100083.38
2023-04-16T04:42:38.104Z,100084.80
2023-04-16T04:45:06.867Z,100086.83
2023-04-16T04:47:35.160Z,100086.20
2023-04-16T04:50:02.888Z,100086.28
2023-04-16T04:52:31.281Z,100089.75
2023-04-16T04:54:59.026Z,100090.65
2023-04-16T04:57:26.772Z,100094.20
2023-04-16T04:59:55.467Z,100095.53
2023-04-16T05:02:23.859Z,100100.45
2023-04-16T05:04:51.726Z,100107.80
2023-04-16T05:07:19.675Z,100105.81
2023-04-16T05:09:47.426Z,100108.48
2023-04-16T05:12:15.248Z,100113.48
2023-04-16T05:14:43.101Z,100115.52
2023-04-16T05:17:11.066Z,100124.71
2023-04-16T05:19:38.823Z,100122.35
2023-04-16T05:22:06.740Z,100128.34
2023-04-16T05:24:34.651Z,100129.44
2023-04-16T05:27:02.398Z,100135.42
2023-04-16T05:29:30.113Z,100137.38
2023-04-16T05:31:58.065Z,100142.09
2023-04-16T05:34:26.293Z,100144.19
2023-04-16T05:36:54.277Z,100146.20
2023-04-16T05:39:22.423Z,100149.30
2023-04-16T05:41:50.365Z,100152.58
2023-04-16T05:44:18.265Z,100157.85
2023-04-16T05:46:46.299Z,100159.19
2023-04-16T05:49:14.387Z,100162.60
2023-04-16T05:51:42.361Z,100164.63
2023-04-16T05:54:10.417Z,100161.80
2023-04-16T05:56:38.603Z,100166.61
2023-04-16T05:59:06.556Z,100164.45
2023-04-16T06:01:34.514Z,100164.99
2023-04-16T06:04:02.624Z,100168.70
2023-04-16T06:06:30.861Z,100171.97
2023-04-16T06:08:58.956Z,100175.70
2023-04-16T06:11:27.624Z,100172.35
2023-04-16T06:13:55.535Z,100168.20
2023-04-16T06:16:23.527Z,100170.86
2023-04-16T06:18:51.366Z,100176.48
2023-04-16T06:21:19.291Z,100176.45
2023-04-16T06:23:47.774Z,100186.61
2023-04-16T06:26:16.061Z,100184.58
2023-04-16T06:28:44.059Z,100184.59
2023-04-16T06:31:12.023Z,100183.61
2023-04-16T06:33:39.970Z,100181.66
2023-04-16T06:36:07.772Z,100182.64
2023-04-16T06:38:36.357Z,100185.23
2023-04-16T06:41:04.594Z,100186.95
2023-04-16T06:43:33.904Z,100187.74
2023-04-16T06:46:01.742Z,100191.82
2023-04-16T06:48:30.069Z,100189.13
2023-04-16T06:50:57.978Z,100191.27
2023-04-16T06:53:26.127Z,100192.38
2023-04-16T06:55:54.233Z,100194.29
2023-04-16T06:58:22.496Z,100196.80
2023-04-16T07:00:50.513Z,100198.69
2023-04-16T07:03:18.923Z,100200.15
2023-04-16T07:05:47.189Z,100203.20
2023-04-16T07:08:15.602Z,100205.29
2023-04-16T07:10:43.983Z,100206.58
2023-04-16T07:13:11.779Z,100209.95
2023-04-16T07:15:39.883Z,100215.68
2023-04-16T07:18:07.731Z,100220.08
2023-04-16T07:20:36.513Z,100223.21
2023-04-16T07:23:07.331Z,100226.69
2023-04-16T07:25:35.213Z,100227.21
2023-04-16T07:28:03.942Z,100232.44
2023-04-16T07:30:34.776Z,100234.16
2023-04-16T07:33:06.134Z,100237.31
2023-04-16T07:35:34.211Z,100243.44
2023-04-16T07:38:02.156Z,100245.46
2023-04-16T07:40:30.069Z,100250.52
2023-04-16T07:42:57.966Z,100252.89
2023-04-16T07:45:25.953Z,100253.48
2023-04-16T07:47:54.065Z,100255.98
2023-04-16T07:50:22.731Z,100254.75
2023-04-16T07:52:50.828Z,100253.42
2023-04-16T07:55:18.719Z,100255.09
2023-04-16T07:57:46.615Z,100259.92
2023-04-16T13:02:56.264Z,100288.13
2023-04-16T13:05:23.196Z,100284.29
2023-04-16T13:07:49.670Z,100285.61
2023-04-16T13:10:16.000Z,100284.45
2023-04-16T13:12:42.398Z,100288.59
2023-04-16T13:15:09.866Z,100285.52
2023-04-16T13:17:36.432Z,100284.80
2023-04-16T13:20:03.079Z,100288.55
2023-04-16T13:22:29.824Z,100291.12
2023-04-16T13:24:56.533Z,100283.89
2023-04-16T13:27:23.191Z,100288.90
2023-04-16T13:29:49.541Z,100285.16
2023-04-16T13:32:16.663Z,100283.02
2023-04-16T13:34:43.093Z,100286.95
2023-04-16T13:37:09.555Z,100279.62
2023-04-16T13:39:35.955Z,100280.30
2023-04-16T13:42:02.320Z,100282.33
2023-04-16T13:44:28.988Z,100283.21
2023-04-16T13:46:56.117Z,100277.84
2023-04-16T13:49:22.804Z,100278.15
2023-04-16T13:51:49.206Z,100277.80
2023-04-16T13:54:15.523Z,100277.43
2023-04-16T13:56:41.886Z,100274.73
2023-04-16T13:59:08.652Z,100274.16
2023-04-16T14:01:35.395Z,100272.91
2023-04-16T14:04:05.713Z,100277.05
2023-04-16T14:06:33.446Z,100278.92
2023-04-16T14:09:00.587Z,100279.12
2023-04-16T14:11:27.091Z,100279.37
2023-04-16T14:13:53.540Z,100278.55
2023-04-16T14:16:20.223Z,100274.92
2023-04-16T14:18:46.853Z,100273.91
2023-04-16T14:21:13.206Z,100279.70
2023-04-16T14:23:39.808Z,100275.73
2023-04-16T14:26:06.247Z,100276.45
2023-04-16T14:28:32.805Z,100273.05
2023-04-16T14:30:59.134Z,100271.75
2023-04-16T14:33:25.712Z,100272.81
2023-04-16T14:35:52.236Z,100275.55
2023-04-16T14:38:18.602Z,100271.40
2023-04-16T14:40:45.041Z,100271.91
2023-04-16T14:43:11.451Z,100274.52
2023-04-16T14:45:38.331Z,100279.19
2023-04-16T14:48:05.628Z,100280.58
2023-04-16T14:50:37.173Z,100278.88
2023-04-16T14:53:04.488Z,100280.82
2023-04-16T14:55:31.530Z,100279.63
2023-04-16T14:57:58.984Z,100274.48
2023-04-16T15:00:25.606Z,100275.96
2023-04-16T15:02:53.079Z,100278.34
2023-04-16T15:05:19.732Z,100285.68
2023-04-16T15:07:46.749Z,100286.02
2023-04-16T15:10:13.518Z,100287.10
2023-04-16T15:12:40.411Z,100280.70
2023-04-16T15:15:07.856Z,100284.05
2023-04-16T15:17:34.418Z,100287.98
2023-04-16T15:20:00.984Z,100286.51
2023-04-16T15:22:27.432Z,100288.75
2023-04-16T15:24:53.818Z,100290.70
2023-04-16T15:27:20.386Z,100287.70
2023-04-16T15:29:48.773Z,100297.15
2023-04-16T15:32:15.451Z,100293.84
2023-04-16T15:34:42.817Z,100294.45
2023-04-16T15:37:09.646Z,100300.92
2023-04-16T15:39:35.998Z,100300.60
2023-04-16T15:42:06.513Z,100302.39
2023-04-16T15:44:34.156Z,100304.38
2023-04-16T15:47:00.652Z,100302.52
2023-04-16T15:49:27.093Z,100302.42
2023-04-16T15:51:53.805Z,100307.11
2023-04-16T15:54:21.407Z,100305.44
2023-04-16T15:56:47.927Z,100313.00
2023-04-16T15:59:14.319Z,100312.08
2023-04-16T16:01:40.975Z,100316.33
2023-04-16T16:04:08.321Z,100314.81
2023-04-16T16:06:35.229Z,100317.88
2023-04-16T16:09:01.975Z,100318.63
2023-04-16T16:11:28.522Z,100317.84
2023-04-16T16:13:54.863Z,100321.58
2023-04-16T16:16:21.333Z,100326.49
2023-04-16T16:18:48.149Z,100324.98
2023-04-16T16:21:14.618Z,100328.61
2023-04-16T16:23:41.346Z,100334.04
2023-04-16T16:26:08.642Z,100333.33
2023-04-16T16:28:37.153Z,100336.84
2023-04-16T16:31:05.186Z,100340.23
2023-04-16T16:33:31.560Z,100344.91
2023-04-16T16:35:58.166Z,100346.04
2023-04-16T16:38:25.239Z,100351.76
2023-04-16T16:40:51.750Z,100349.45
2023-04-16T16:43:18.144Z,100350.12
2023-04-16T16:45:44.528Z,100353.14
2023-04-16T16:48:10.984Z,100355.39
2023-04-16T16:50:37.357Z,100352.88
2023-04-16T16:53:03.827Z,100355.41
2023-04-16T16:55:30.714Z,100354.74
2023-04-16T16:57:58.286Z,100360.61
2023-04-16T17:00:24.880Z,100360.52
2023-04-16T17:02:51.595Z,100361.73
2023-04-16T17:05:18.151Z,100366.14
2023-04-16T17:07:45.098Z,100369.88
2023-04-16T17:10:15.166Z,100374.96
2023-04-16T17:12:41.949Z,100382.29
2023-04-16T17:15:09.063Z,100382.26
2023-04-16T17:17:35.784Z,100387.38
2023-04-16T17:20:08.041Z,100391.26
2023-04-16T17:22:35.285Z,100396.23
2023-04-16T17:25:01.749Z,100404.92
2023-04-16T17:27:28.789Z,100407.88
2023-04-16T17:29:59.471Z,100407.25
2023-04-16T17:32:26.211Z,100409.24
2023-04-16T17:34:56.774Z,100415.90
2023-04-16T17:37:23.331Z,100422.02
2023-04-16T17:39:50.813Z,100420.67
2023-04-16T17:42:17.345Z,100427.13
2023-04-16T17:44:43.990Z,100428.49
2023-04-16T17:47:11.156Z,100425.25
2023-04-16T17:49:37.563Z,100423.65
2023-04-16T17:52:04.420Z,100432.65
2023-04-16T17:54:32.084Z,100435.85
2023-04-16T17:56:58.698Z,100437.98
2023-04-16T17:59:25.349Z,100446.05
2023-04-16T18:01:51.975Z,100448.69
2023-04-16T18:04:19.158Z,100451.42
2023-04-16T18:06:45.995Z,100455.37
2023-04-16T18:09:13.565Z,100455.89
2023-04-16T18:11:39.979Z,100457.86
2023-04-16T18:14:09.127Z,100462.70
2023-04-16T18:16:35.616Z,100467.16
2023-04-16T18:19:02.016Z,100471.55
2023-04-16T18:21:29.908Z,100471.63
2023-04-16T18:23:57.013Z,100478.33
2023-04-16T18:26:25.395Z,100482.75
2023-04-16T18:28:52.758Z,100488.71
2023-04-16T18:31:21.373Z,100492.21
2023-04-16T18:33:56.440Z,100489.05
2023-04-16T18:36:23.968Z,100495.14
2023-04-16T18:39:01.014Z,100501.08
2023-04-16T18:41:29.197Z,100502.58
2023-04-16T18:43:56.096Z,100503.96
2023-04-16T18:46:22.552Z,100508.66
2023-04-16T18:48:49.135Z,100508.16
2023-04-16T18:51:16.283Z,100513.29
2023-04-16T18:53:44.689Z,100515.88
2023-04-16T18:56:11.333Z,100513.45
2023-04-16T18:58:38.153Z,100514.98
2023-04-16T19:01:09.918Z,100515.40
2023-04-16T19:03:36.660Z,100518.39
2023-04-16T19:06:03.985Z,100523.69
2023-04-16T19:08:30.387Z,100527.45
2023-04-16T19:10:57.013Z,100527.19
2023-04-16T19:13:27.040Z,100527.83
2023-04-16T19:15:59.036Z,100529.55
2023-04-16T19:18:25.929Z,100526.93
2023-04-16T19:20:58.795Z,100528.29
2023-04-16T19:23:25.269Z,100530.02
2023-04-16T19:25:51.700Z,100532.38
2023-04-16T19:28:18.402Z,100533.79
2023-04-16T19:30:45.976Z,100534.27
2023-04-16T19:33:12.773Z,100536.51
2023-04-16T19:35:42.218Z,100531.42
2023-04-16T19:38:10.755Z,100531.15
2023-04-16T19:40:37.714Z,100531.41
2023-04-16T19:43:04.791Z,100531.60
2023-04-16T19:45:31.377Z,100537.59
2023-04-16T19:47:58.348Z,100543.50
2023-04-16T19:50:24.964Z,100540.45
2023-04-16T19:52:51.334Z,100541.34
2023-04-16T19:55:18.394Z,100540.77
2023-04-16T19:57:47.298Z,100541.16
2023-04-16T20:00:14.290Z,100543.54
2023-04-16T20:02:41.299Z,100545.99
2023-04-16T20:05:11.721Z,100550.51
2023-04-16T20:07:38.257Z,100545.22
2023-04-16T20:10:05.088Z,100545.57
2023-04-16T20:12:31.479Z,100542.46
2023-04-16T20:14:58.146Z,100539.04
2023-04-16T20:17:25.277Z,100539.94
2023-04-16T20:19:51.639Z,100537.66
2023-04-16T20:22:18.279Z,100535.31
2023-04-16T20:24:47.772Z,100531.59
2023-04-16T20:27:16.192Z,100532.14
2023-04-16T20:29:42.499Z,100533.58
2023-04-16T20:32:09.234Z,100534.06
2023-04-16T20:34:37.337Z,100528.68
2023-04-16T20:37:04.085Z,100525.23
2023-04-16T20:39:33.523Z,100527.02
2023-04-16T20:42:00.297Z,100524.81
2023-04-16T20:44:32.473Z,100527.19
2023-04-16T20:46:59.053Z,100526.61
2023-04-16T20:49:25.409Z,100526.41
2023-04-16T20:51:51.759Z,100525.56
2023-04-16T20:54:18.264Z,100527.25
2023-04-16T20:56:46.993Z,100530.70
2023-04-16T20:59:13.917Z,100535.44
2023-04-16T21:01:40.393Z,100533.24
2023-04-16T21:04:07.197Z,100537.23
2023-04-16T21:06:37.626Z,100540.27
2023-04-16T21:09:05.267Z,100546.69
2023-04-16T21:11:33.670Z,100547.48
2023-04-16T21:14:00.559Z,100544.56
2023-04-16T21:16:27.092Z,100548.98
2023-04-16T21:18:54.915Z,100551.20
2023-04-16T21:21:21.675Z,100552.36
2023-04-16T21:23:48.508Z,100550.60
2023-04-16T21:26:16.264Z,100552.00
2023-04-16T21:28:42.619Z,100552.23
2023-04-16T21:31:09.049Z,100552.99
2023-04-16T21:33:35.507Z,100546.40
2023-04-16T21:36:02.009Z,100549.55
2023-04-16T21:38:28.383Z,100551.07
2023-04-16T21:40:55.169Z,100548.52
2023-04-16T21:43:26.372Z,100547.73
2023-04-16T21:45:52.905Z,100543.20
2023-04-16T21:48:20.035Z,100545.73
2023-04-16T21:50:46.550Z,100546.46
2023-04-16T21:53:12.858Z,100544.98
2023-04-16T21:55:39.973Z,100547.79
2023-04-16T21:58:06.444Z,100543.96
2023-04-16T22:00:33.129Z,100541.52
2023-04-16T22:02:59.661Z,100541.52
2023-04-16T22:05:26.230Z,100541.58
2023-04-16T22:07:52.628Z,100541.66
2023-04-16T22:10:19.113Z,100543.59
2023-04-16T22:12:45.845Z,100543.80
2023-04-16T22:15:13.031Z,100544.34
2023-04-16T22:17:40.140Z,100543.63
2023-04-16T22:20:12.520Z,100543.19
2023-04-16T22:22:39.961Z,100542.42
2023-04-16T22:25:06.918Z,100543.14
2023-04-16T22:27:33.878Z,100542.63
2023-04-16T22:30:00.998Z,100540.52
2023-04-16T22:32:27.525Z,100539.65
2023-04-16T22:34:54.017Z,100535.44
2023-04-16T22:37:20.319Z,100535.04
2023-04-16T22:39:46.780Z,100530.48
2023-04-16T22:42:13.131Z,100530.28
2023-04-16T22:44:39.780Z,100527.23
2023-04-16T22:47:06.612Z,100524.08
2023-04-16T22:49:33.404Z,100522.19
2023-04-16T22:52:00.644Z,100519.86
2023-04-16T22:54:28.491Z,100525.10
2023-04-16T22:56:56.032Z,100533.77
2023-04-16T22:59:22.592Z,100533.30
2023-04-16T23:01:49.503Z,100532.95
2023-04-16T23:04:15.946Z,100535.34
2023-04-16T23:06:42.542Z,100534.92
2023-04-16T23:09:09.581Z,100537.44
2023-04-16T23:11:36.105Z,100533.33
2023-04-16T23:14:03.793Z,100530.16
2023-04-16T23:16:30.602Z,100526.58
2023-04-16T23:18:56.938Z,100527.16
2023-04-16T23:21:23.363Z,100521.92
2023-04-16T23:23:49.930Z,100521.39
2023-04-16T23:26:16.622Z,100522.31
2023-04-16T23:28:42.954Z,100524.23
2023-04-16T23:31:09.331Z,100520.80
2023-04-16T23:33:35.986Z,100523.07
2023-04-16T23:36:02.396Z,100524.24
2023-04-16T23:38:29.219Z,100520.91
2023-04-16T23:40:55.572Z,100519.25
2023-04-16T23:43:22.595Z,100516.09
2023-04-16T23:45:49.702Z,100515.73
2023-04-16T23:48:16.192Z,100515.33
2023-04-16T23:50:42.549Z,100514.14
2023-04-16T23:53:08.987Z,100518.24
2023-04-16T23:55:35.449Z,100518.29
2023-04-16T23:58:01.913Z,100517.02
